createdAt,value
2019-03-22T01:01:34.789Z,26.39
2019-03-22T01:02:34.980Z,25.79
2019-03-22T01:04:34.757Z,26.60
2019-03-22T01:05:34.745Z,35.79
2019-03-22T01:06:34.737Z,20.50
2019-03-22T01:07:34.725Z,22.29
2019-03-22T01:08:34.819Z,23.79
2019-03-22T01:09:34.705Z,32.09
2019-03-22T01:10:34.694Z,32.50
2019-03-22T01:11:34.685Z,35.90
2019-03-22T01:12:34.675Z,32.79
2019-03-22T01:13:34.662Z,61.29
2019-03-22T01:14:34.705Z,34.40
2019-03-22T01:15:34.641Z,37.00
2019-03-22T01:16:34.632Z,39.09
2019-03-22T01:17:34.618Z,36.79
2019-03-22T01:18:34.607Z,38.50
2019-03-22T01:19:34.599Z,37.90
2019-03-22T01:20:34.739Z,45.00
2019-03-22T01:21:34.581Z,42.00
2019-03-22T01:22:34.566Z,37.40
2019-03-22T01:23:34.554Z,35.20
2019-03-22T01:24:34.546Z,46.09
2019-03-22T01:25:34.534Z,48.09
2019-03-22T01:26:34.577Z,55.90
2019-03-22T01:27:40.248Z,37.00
2019-03-22T01:28:59.331Z,32.79
2019-03-22T01:29:59.314Z,32.90
2019-03-22T01:30:59.305Z,38.59
2019-03-22T01:31:59.340Z,40.90
2019-03-22T01:32:59.280Z,42.59
2019-03-22T01:33:59.273Z,43.20
2019-03-22T01:34:59.253Z,40.20
2019-03-22T01:35:59.247Z,41.09
2019-03-22T01:36:59.252Z,49.90
2019-03-22T01:37:59.377Z,39.40
2019-03-22T01:38:59.212Z,42.40
2019-03-22T01:39:59.203Z,45.90
2019-03-22T01:40:59.193Z,40.79
2019-03-22T01:41:59.182Z,39.79
2019-03-22T01:42:59.172Z,36.59
2019-03-22T01:43:59.215Z,48.79
2019-03-22T01:44:59.144Z,46.20
2019-03-22T01:45:59.137Z,40.79
2019-03-22T01:46:59.121Z,31.20
2019-03-22T01:47:59.116Z,55.90
2019-03-22T01:48:59.102Z,49.00
2019-03-22T01:49:59.142Z,48.20
2019-03-22T01:50:59.088Z,43.40
2019-03-22T01:51:59.072Z,47.09
2019-03-22T01:52:59.061Z,61.20
2019-03-22T01:53:59.049Z,43.70
2019-03-22T01:54:59.038Z,51.79
2019-03-22T01:55:59.232Z,45.00
2019-03-22T01:56:59.018Z,42.59
2019-03-22T01:57:59.004Z,38.40
2019-03-22T01:58:58.992Z,45.00
2019-03-22T01:59:58.986Z,43.00
2019-03-22T02:00:58.968Z,49.00
2019-03-22T02:01:59.066Z,34.90
2019-03-22T02:02:58.947Z,33.79
2019-03-22T02:03:58.943Z,38.59
2019-03-22T02:04:58.928Z,34.79
2019-03-22T02:05:58.916Z,44.59
2019-03-22T02:06:58.941Z,42.50
2019-03-22T02:07:58.946Z,42.50
2019-03-22T02:08:58.882Z,44.50
2019-03-22T02:09:58.874Z,36.09
2019-03-22T02:10:58.863Z,35.29
2019-03-22T02:11:58.849Z,41.50
2019-03-22T02:12:58.837Z,38.59
2019-03-22T02:13:58.979Z,44.09
2019-03-22T02:14:58.818Z,43.90
2019-03-22T02:15:58.807Z,37.20
2019-03-22T02:16:58.794Z,40.09
2019-03-22T02:17:58.786Z,41.90
2019-03-22T02:18:58.775Z,37.79
2019-03-22T02:19:58.866Z,44.59
2019-03-22T02:20:58.760Z,49.29
2019-03-22T02:21:58.738Z,44.70
2019-03-22T02:22:58.731Z,36.09
2019-03-22T02:23:58.718Z,38.70
2019-03-22T02:24:58.708Z,43.59
2019-03-22T02:25:58.796Z,56.40
2019-03-22T02:26:58.687Z,45.59
2019-03-22T02:28:04.211Z,44.79
2019-03-22T02:28:59.765Z,45.20
2019-03-22T02:29:58.656Z,47.40
2019-03-22T02:30:58.644Z,66.00
2019-03-22T02:31:58.785Z,48.29
2019-03-22T02:32:58.634Z,60.70
2019-03-22T02:33:58.618Z,48.59
2019-03-22T02:34:58.601Z,51.90
2019-03-22T02:35:58.590Z,47.50
2019-03-22T02:36:58.576Z,59.29
2019-03-22T02:37:58.612Z,47.90
2019-03-22T02:38:58.560Z,45.90
2019-03-22T02:39:58.543Z,38.29
2019-03-22T02:40:58.539Z,46.90
2019-03-22T02:41:58.525Z,41.29
2019-03-22T02:42:58.512Z,50.59
2019-03-22T02:43:58.553Z,45.00
2019-03-22T02:44:58.490Z,45.20
2019-03-22T02:45:58.482Z,43.20
2019-03-22T02:46:58.470Z,42.09
2019-03-22T02:47:58.461Z,44.59
2019-03-22T02:48:58.445Z,37.59
2019-03-22T02:49:58.636Z,50.20
2019-03-22T02:50:58.444Z,39.79
2019-03-22T02:51:58.416Z,49.09
2019-03-22T02:52:58.409Z,52.40
2019-03-22T02:53:58.398Z,48.40
2019-03-22T02:54:58.385Z,50.00
2019-03-22T02:55:58.599Z,43.09
2019-03-22T02:56:58.366Z,38.00
2019-03-22T02:57:58.350Z,45.90
2019-03-22T02:58:59.424Z,42.70
2019-03-22T02:59:58.382Z,51.59
2019-03-22T03:00:58.319Z,44.40
2019-03-22T03:01:58.357Z,46.20
2019-03-22T03:02:58.296Z,53.59
2019-03-22T03:03:58.280Z,52.40
2019-03-22T03:04:58.275Z,51.40
2019-03-22T03:05:58.261Z,54.90
2019-03-22T03:06:58.254Z,58.70
2019-03-22T03:07:58.392Z,49.00
2019-03-22T03:08:58.228Z,49.20
2019-03-22T03:09:58.219Z,53.59
2019-03-22T03:10:58.206Z,50.50
2019-03-22T03:11:58.199Z,52.79
2019-03-22T03:12:58.182Z,48.29
2019-03-22T03:13:58.220Z,51.00
2019-03-22T03:14:58.163Z,40.20
2019-03-22T03:15:58.152Z,52.79
2019-03-22T03:16:58.196Z,53.20
2019-03-22T03:17:58.132Z,50.29
2019-03-22T03:18:58.123Z,42.09
2019-03-22T03:19:58.157Z,54.09
2019-03-22T03:20:58.101Z,50.79
2019-03-22T03:21:58.087Z,50.50
2019-03-22T03:22:58.074Z,50.59
2019-03-22T03:23:58.065Z,46.59
2019-03-22T03:24:58.052Z,37.59
2019-03-22T03:25:58.193Z,45.79
2019-03-22T03:26:58.030Z,30.39
2019-03-22T03:27:58.015Z,37.20
2019-03-22T03:28:58.021Z,30.00
2019-03-22T03:29:57.999Z,25.79
2019-03-22T03:30:57.989Z,19.60
2019-03-22T03:31:58.078Z,17.10
2019-03-22T03:32:57.970Z,32.50
2019-03-22T03:33:57.965Z,36.70
2019-03-22T03:34:57.955Z,44.50
2019-03-22T03:35:57.934Z,23.00
2019-03-22T03:36:57.921Z,32.50
2019-03-22T03:37:58.014Z,39.40
2019-03-22T03:38:57.899Z,36.20
2019-03-22T03:39:57.888Z,41.29
2019-03-22T03:40:57.881Z,45.29
2019-03-22T03:41:57.868Z,45.59
2019-03-22T03:42:57.856Z,33.29
2019-03-22T03:43:57.991Z,44.40
2019-03-22T03:44:57.831Z,34.90
2019-03-22T03:45:57.823Z,44.00
2019-03-22T03:46:57.813Z,46.70
2019-03-22T03:47:57.801Z,41.70
2019-03-22T03:48:57.789Z,38.50
2019-03-22T03:49:57.878Z,31.89
2019-03-22T03:50:57.771Z,35.00
2019-03-22T03:51:57.765Z,30.79
2019-03-22T03:52:57.748Z,32.20
2019-03-22T03:53:57.738Z,37.79
2019-03-22T03:54:57.729Z,32.09
2019-03-22T03:55:57.822Z,38.00
2019-03-22T03:56:57.705Z,35.09
2019-03-22T03:57:57.692Z,37.50
2019-03-22T03:58:57.681Z,43.90
2019-03-22T03:59:57.670Z,30.50
2019-03-22T04:00:57.669Z,34.90
2019-03-22T04:01:57.801Z,30.39
2019-03-22T04:02:57.642Z,17.79
2019-03-22T04:03:57.646Z,28.70
2019-03-22T04:04:57.618Z,23.29
2019-03-22T04:05:57.608Z,22.60
2019-03-22T04:06:57.594Z,13.69
2019-03-22T04:07:57.638Z,12.89
2019-03-22T04:08:57.571Z,15.69
2019-03-22T04:09:57.569Z,19.29
2019-03-22T04:10:57.554Z,19.60
2019-03-22T04:11:57.542Z,21.00
2019-03-22T04:12:57.566Z,18.00
2019-03-22T04:13:57.621Z,21.89
2019-03-22T04:14:57.518Z,20.00
2019-03-22T04:15:57.526Z,17.29
2019-03-22T04:16:57.491Z,16.79
2019-03-22T04:17:57.473Z,18.79
2019-03-22T04:18:57.466Z,19.79
2019-03-22T04:19:57.608Z,13.00
2019-03-22T04:20:57.446Z,17.60
2019-03-22T04:21:57.440Z,16.10
2019-03-22T04:22:57.427Z,14.50
2019-03-22T04:23:57.416Z,14.60
2019-03-22T04:24:57.400Z,16.39
2019-03-22T04:25:57.443Z,16.79
2019-03-22T04:26:57.387Z,13.50
2019-03-22T04:27:57.370Z,16.10
2019-03-22T04:29:07.523Z,17.39
2019-03-22T04:30:22.160Z,26.29
2019-03-22T04:31:22.256Z,28.10
2019-03-22T04:32:22.142Z,30.29
2019-03-22T04:33:22.133Z,30.79
2019-03-22T04:34:22.133Z,27.50
2019-03-22T04:35:22.114Z,36.09
2019-03-22T04:36:22.100Z,27.89
2019-03-22T04:37:22.345Z,38.40
2019-03-22T04:38:22.079Z,39.20
2019-03-22T04:39:22.069Z,32.00
2019-03-22T04:40:22.056Z,41.90
2019-03-22T04:41:22.046Z,32.09
2019-03-22T04:42:22.038Z,29.70
2019-03-22T04:43:22.072Z,32.79
2019-03-22T04:44:22.012Z,34.00
2019-03-22T04:45:21.997Z,42.40
2019-03-22T04:46:21.990Z,39.90
2019-03-22T04:47:21.980Z,44.59
2019-03-22T04:48:21.971Z,39.09
2019-03-22T04:49:22.057Z,37.29
2019-03-22T04:50:21.945Z,40.20
2019-03-22T04:51:21.933Z,41.00
2019-03-22T04:52:21.927Z,39.20
2019-03-22T04:53:22.160Z,39.20
2019-03-22T04:54:21.905Z,31.50
2019-03-22T04:55:22.293Z,58.09
2019-03-22T04:56:21.880Z,53.59
2019-03-22T04:57:21.871Z,46.00
2019-03-22T04:58:21.862Z,52.90
2019-03-22T04:59:21.846Z,44.70
2019-03-22T05:00:21.839Z,44.29
2019-03-22T05:01:21.881Z,39.70
2019-03-22T05:02:21.813Z,48.09
2019-03-22T05:03:21.806Z,45.20
2019-03-22T05:04:21.797Z,45.29
2019-03-22T05:05:21.792Z,45.59
2019-03-22T05:06:21.770Z,54.40
2019-03-22T05:07:21.809Z,55.90
2019-03-22T05:08:21.751Z,58.50
2019-03-22T05:09:21.736Z,50.79
2019-03-22T05:10:21.730Z,61.40
2019-03-22T05:11:21.720Z,50.79
2019-03-22T05:12:21.710Z,59.09
2019-03-22T05:13:21.842Z,58.00
2019-03-22T05:14:21.686Z,46.20
2019-03-22T05:15:21.675Z,45.79
2019-03-22T05:16:21.665Z,43.59
2019-03-22T05:17:21.657Z,43.29
2019-03-22T05:18:21.645Z,42.79
2019-03-22T05:19:21.683Z,42.09
2019-03-22T05:20:21.618Z,49.70
2019-03-22T05:21:21.610Z,47.09
2019-03-22T05:22:21.597Z,47.59
2019-03-22T05:23:21.587Z,44.50
2019-03-22T05:24:21.585Z,35.40
2019-03-22T05:25:21.669Z,44.59
2019-03-22T05:26:21.552Z,41.40
2019-03-22T05:27:21.541Z,40.00
2019-03-22T05:28:21.534Z,35.29
2019-03-22T05:29:30.179Z,39.29
2019-03-22T05:30:23.010Z,41.29
2019-03-22T05:31:21.501Z,46.29
2019-03-22T05:32:21.488Z,48.09
2019-03-22T05:33:21.479Z,47.59
2019-03-22T05:34:21.470Z,42.79
2019-03-22T05:35:21.460Z,37.29
2019-03-22T05:36:21.498Z,42.40
2019-03-22T05:37:21.438Z,41.29
2019-03-22T05:38:21.426Z,39.00
2019-03-22T05:39:21.418Z,39.59
2019-03-22T05:40:21.402Z,42.29
2019-03-22T05:41:21.397Z,40.79
2019-03-22T05:42:21.486Z,43.90
2019-03-22T05:43:21.369Z,39.00
2019-03-22T05:44:21.364Z,39.40
2019-03-22T05:45:21.353Z,38.00
2019-03-22T05:46:21.340Z,39.50
2019-03-22T05:47:21.333Z,36.59
2019-03-22T05:48:21.474Z,36.79
2019-03-22T05:49:21.314Z,39.29
2019-03-22T05:50:21.301Z,33.79
2019-03-22T05:51:21.290Z,33.09
2019-03-22T05:52:21.275Z,34.00
2019-03-22T05:53:21.267Z,38.59
2019-03-22T05:54:21.358Z,33.20
2019-03-22T05:55:21.265Z,29.10
2019-03-22T05:56:21.237Z,36.29
2019-03-22T05:57:21.232Z,30.60
2019-03-22T05:58:21.218Z,27.00
2019-03-22T05:59:21.205Z,24.39
2019-03-22T06:00:21.245Z,22.29
2019-03-22T06:01:21.186Z,23.00
2019-03-22T06:02:21.172Z,21.29
2019-03-22T06:03:21.164Z,18.89
2019-03-22T06:04:21.152Z,19.20
2019-03-22T06:05:21.141Z,18.10
2019-03-22T06:06:21.279Z,13.60
2019-03-22T06:07:21.120Z,21.79
2019-03-22T06:08:21.110Z,18.29
2019-03-22T06:09:21.095Z,16.79
2019-03-22T06:10:21.086Z,17.89
2019-03-22T06:11:21.078Z,13.50
2019-03-22T06:12:21.170Z,15.10
2019-03-22T06:13:21.054Z,14.89
2019-03-22T06:14:21.044Z,13.50
2019-03-22T06:15:21.031Z,18.29
2019-03-22T06:16:21.022Z,16.10
2019-03-22T06:17:21.016Z,15.89
2019-03-22T06:18:21.046Z,19.20
2019-03-22T06:19:20.986Z,16.10
2019-03-22T06:20:20.979Z,19.50
2019-03-22T06:21:20.967Z,16.79
2019-03-22T06:22:20.957Z,17.89
2019-03-22T06:23:20.949Z,16.20
2019-03-22T06:24:22.345Z,15.30
2019-03-22T06:25:20.946Z,17.50
2019-03-22T06:26:20.916Z,19.10
2019-03-22T06:27:20.902Z,21.29
2019-03-22T06:28:20.887Z,13.69
2019-03-22T06:29:20.897Z,15.89
2019-03-22T06:30:20.970Z,20.89
2019-03-22T06:31:20.880Z,21.50
2019-03-22T06:32:20.845Z,16.70
2019-03-22T06:33:20.834Z,15.50
2019-03-22T06:34:20.822Z,19.60
2019-03-22T06:35:20.809Z,17.50
2019-03-22T06:36:20.850Z,19.50
2019-03-22T06:37:20.791Z,17.29
2019-03-22T06:38:20.778Z,22.10
2019-03-22T06:39:20.769Z,19.79
2019-03-22T06:40:20.755Z,22.29
2019-03-22T06:41:20.748Z,19.20
2019-03-22T06:42:20.986Z,21.79
2019-03-22T06:43:20.730Z,17.89
2019-03-22T06:44:20.712Z,15.69
2019-03-22T06:45:20.702Z,15.60
2019-03-22T06:46:20.695Z,14.00
2019-03-22T06:47:20.689Z,16.39
2019-03-22T06:48:20.716Z,26.29
2019-03-22T06:49:20.661Z,22.70
2019-03-22T06:50:20.645Z,23.70
2019-03-22T06:51:20.632Z,21.10
2019-03-22T06:52:20.627Z,27.00
2019-03-22T06:53:20.610Z,21.39
2019-03-22T06:54:31.086Z,20.79
2019-03-22T06:55:45.407Z,25.10
2019-03-22T06:56:45.394Z,22.79
2019-03-22T06:57:45.387Z,20.20
2019-03-22T06:58:45.375Z,21.89
2019-03-22T06:59:45.614Z,19.60
2019-03-22T07:00:45.353Z,17.00
2019-03-22T07:01:45.344Z,16.89
2019-03-22T07:02:45.334Z,16.29
2019-03-22T07:03:45.322Z,18.79
2019-03-22T07:04:45.306Z,17.29
2019-03-22T07:05:45.399Z,16.00
2019-03-22T07:06:45.286Z,18.70
2019-03-22T07:07:45.279Z,17.29
2019-03-22T07:08:45.265Z,17.50
2019-03-22T07:09:45.260Z,17.20
2019-03-22T07:10:45.247Z,19.89
2019-03-22T07:11:45.285Z,23.70
2019-03-22T07:12:45.222Z,29.50
2019-03-22T07:13:45.207Z,35.79
2019-03-22T07:14:45.201Z,30.10
2019-03-22T07:15:45.190Z,39.59
2019-03-22T07:16:45.177Z,36.59
2019-03-22T07:17:45.417Z,40.40
2019-03-22T07:18:45.156Z,42.00
2019-03-22T07:19:45.142Z,40.29
2019-03-22T07:20:45.135Z,40.70
2019-03-22T07:21:45.121Z,32.79
2019-03-22T07:22:45.166Z,36.90
2019-03-22T07:23:45.149Z,35.50
2019-03-22T07:24:45.092Z,40.50
2019-03-22T07:25:45.080Z,45.00
2019-03-22T07:26:45.067Z,30.10
2019-03-22T07:27:45.058Z,27.00
2019-03-22T07:28:45.047Z,18.70
2019-03-22T07:29:45.084Z,18.79
2019-03-22T07:30:45.021Z,17.79
2019-03-22T07:31:45.013Z,19.00
2019-03-22T07:32:45.005Z,19.60
2019-03-22T07:33:44.995Z,14.00
2019-03-22T07:34:44.981Z,22.50
2019-03-22T07:35:45.176Z,25.50
2019-03-22T07:36:46.996Z,12.69
2019-03-22T07:37:44.947Z,18.10
2019-03-22T07:38:44.944Z,39.79
2019-03-22T07:39:44.930Z,32.29
2019-03-22T07:40:44.921Z,40.29
2019-03-22T07:41:44.964Z,41.09
2019-03-22T07:42:44.903Z,45.29
2019-03-22T07:43:44.886Z,44.79
2019-03-22T07:44:44.882Z,40.20
2019-03-22T07:45:44.874Z,51.40
2019-03-22T07:46:44.861Z,44.70
2019-03-22T07:47:44.945Z,49.79
2019-03-22T07:48:44.836Z,35.50
2019-03-22T07:49:44.826Z,38.40
2019-03-22T07:50:44.814Z,41.09
2019-03-22T07:51:44.806Z,44.79
2019-03-22T07:52:44.796Z,41.70
2019-03-22T07:53:45.233Z,36.40
2019-03-22T07:54:44.773Z,31.60
2019-03-22T07:55:44.765Z,29.29
2019-03-22T07:56:44.753Z,32.50
2019-03-22T07:57:44.743Z,31.00
2019-03-22T07:58:44.732Z,29.50
2019-03-22T07:59:44.773Z,29.70
2019-03-22T08:00:44.707Z,28.50
2019-03-22T08:01:44.699Z,31.79
2019-03-22T08:02:44.689Z,26.20
2019-03-22T08:03:44.676Z,30.00
2019-03-22T08:04:44.665Z,28.50
2019-03-22T08:05:50.788Z,28.50
2019-03-22T08:07:09.465Z,23.89
2019-03-22T08:08:09.448Z,26.70
2019-03-22T08:09:09.437Z,31.29
2019-03-22T08:10:09.430Z,20.29
2019-03-22T08:11:09.576Z,19.10
2019-03-22T08:12:09.403Z,6.80
2019-03-22T08:13:09.396Z,7.50
2019-03-22T08:14:09.384Z,4.59
2019-03-22T08:15:09.396Z,7.19
2019-03-22T08:16:09.383Z,7.40
2019-03-22T08:17:09.455Z,5.19
2019-03-22T08:18:09.377Z,6.40
2019-03-22T08:19:09.337Z,7.09
2019-03-22T08:20:09.324Z,9.19
2019-03-22T08:21:09.314Z,12.50
2019-03-22T08:22:09.330Z,9.10
2019-03-22T08:23:09.382Z,8.10
2019-03-22T08:24:09.277Z,9.39
2019-03-22T08:25:09.306Z,8.19
2019-03-22T08:26:09.269Z,9.80
2019-03-22T08:27:09.269Z,7.90
2019-03-22T08:28:09.238Z,6.40
2019-03-22T08:29:09.382Z,9.80
2019-03-22T08:30:09.220Z,20.60
2019-03-22T08:31:09.206Z,25.79
2019-03-22T08:32:09.212Z,28.79
2019-03-22T08:33:09.198Z,29.79
2019-03-22T08:34:09.179Z,22.20
2019-03-22T08:35:09.265Z,23.89
2019-03-22T08:36:09.158Z,24.00
2019-03-22T08:37:09.177Z,17.20
2019-03-22T08:38:09.130Z,17.70
2019-03-22T08:39:09.119Z,12.10
2019-03-22T08:40:09.144Z,17.20
2019-03-22T08:41:09.212Z,13.60
2019-03-22T08:42:09.093Z,16.50
2019-03-22T08:43:09.073Z,11.60
2019-03-22T08:44:09.071Z,11.89
2019-03-22T08:45:11.277Z,7.40
2019-03-22T08:46:09.043Z,10.60
2019-03-22T08:47:09.181Z,9.10
2019-03-22T08:48:09.023Z,12.00
2019-03-22T08:49:09.690Z,9.60
2019-03-22T08:50:08.998Z,11.19
2019-03-22T08:51:09.021Z,10.89
2019-03-22T08:52:08.999Z,8.00
2019-03-22T08:53:09.016Z,10.00
2019-03-22T08:54:08.996Z,8.80
2019-03-22T08:55:08.946Z,11.19
2019-03-22T08:56:08.939Z,9.69
2019-03-22T08:57:08.927Z,11.89
2019-03-22T08:58:08.916Z,11.50
2019-03-22T08:59:09.115Z,13.00
2019-03-22T09:00:08.957Z,19.50
2019-03-22T09:01:08.901Z,10.39
2019-03-22T09:02:08.875Z,10.39
2019-03-22T09:03:08.860Z,8.69
2019-03-22T09:04:08.849Z,17.20
2019-03-22T09:05:08.990Z,16.10
2019-03-22T09:06:08.829Z,10.69
2019-03-22T09:07:08.831Z,6.19
2019-03-22T09:08:08.805Z,9.30
2019-03-22T09:09:08.791Z,11.00
2019-03-22T09:10:08.791Z,10.00
2019-03-22T09:11:08.857Z,15.60
2019-03-22T09:12:08.788Z,16.10
2019-03-22T09:13:08.749Z,6.19
2019-03-22T09:14:08.760Z,8.50
2019-03-22T09:15:08.749Z,8.10
2019-03-22T09:16:08.723Z,9.10
2019-03-22T09:17:08.781Z,12.30
2019-03-22T09:18:08.701Z,20.10
2019-03-22T09:19:08.698Z,11.00
2019-03-22T09:20:08.733Z,16.20
2019-03-22T09:21:08.665Z,12.30
2019-03-22T09:22:08.699Z,15.10
2019-03-22T09:23:08.798Z,11.50
2019-03-22T09:24:08.633Z,11.00
2019-03-22T09:25:08.629Z,12.30
2019-03-22T09:26:08.641Z,72.80
2019-03-22T09:27:08.606Z,14.80
2019-03-22T09:28:10.384Z,11.39
2019-03-22T09:29:08.641Z,8.69
2019-03-22T09:30:08.586Z,10.00
2019-03-22T09:31:10.611Z,21.29
2019-03-22T09:32:08.600Z,12.19
2019-03-22T09:33:08.554Z,11.89
2019-03-22T09:34:08.528Z,19.00
2019-03-22T09:35:08.568Z,50.79
2019-03-22T09:36:08.535Z,13.30
2019-03-22T09:37:09.048Z,14.39
2019-03-22T09:38:13.127Z,20.89
2019-03-22T09:39:08.530Z,11.39
2019-03-22T09:40:08.812Z,12.80
2019-03-22T09:41:08.615Z,19.50
2019-03-22T09:42:08.523Z,32.09
2019-03-22T09:43:08.428Z,15.80
2019-03-22T09:44:08.428Z,8.89
2019-03-22T09:45:08.407Z,12.69
2019-03-22T09:46:08.394Z,9.60
2019-03-22T09:47:08.543Z,15.69
2019-03-22T09:48:08.377Z,12.19
2019-03-22T09:49:08.364Z,8.80
2019-03-22T09:50:08.354Z,7.90
2019-03-22T09:51:08.344Z,8.80
2019-03-22T09:52:42.907Z,8.19
2019-03-22T09:53:08.333Z,13.00
2019-03-22T09:54:08.309Z,12.89
2019-03-22T09:55:13.664Z,8.30
2019-03-22T09:56:08.292Z,10.69
2019-03-22T09:57:08.280Z,10.80
2019-03-22T09:58:08.456Z,9.19
2019-03-22T09:59:08.260Z,9.80
2019-03-22T10:00:08.299Z,8.00
2019-03-22T10:01:08.274Z,13.50
2019-03-22T10:02:08.224Z,16.39
2019-03-22T10:03:08.213Z,14.30
2019-03-22T10:04:08.272Z,18.50
2019-03-22T10:05:08.213Z,29.29
2019-03-22T10:06:08.177Z,23.39
2019-03-22T10:07:08.177Z,28.50
2019-03-22T10:08:08.182Z,25.79
2019-03-22T10:09:08.147Z,23.00
2019-03-22T10:10:08.182Z,23.29
2019-03-22T10:11:08.155Z,24.60
2019-03-22T10:12:08.128Z,22.50
2019-03-22T10:13:08.137Z,29.10
2019-03-22T10:14:08.093Z,34.00
2019-03-22T10:15:08.088Z,41.79
2019-03-22T10:16:08.286Z,28.29
2019-03-22T10:17:08.092Z,18.70
2019-03-22T10:18:08.055Z,27.79
2019-03-22T10:19:08.095Z,21.00
2019-03-22T10:20:08.031Z,23.89
2019-03-22T10:21:08.019Z,32.59
2019-03-22T10:22:08.067Z,30.00
2019-03-22T10:23:07.997Z,34.50
2019-03-22T10:24:07.986Z,19.00
2019-03-22T10:25:08.051Z,26.10
2019-03-22T10:26:07.964Z,24.89
2019-03-22T10:27:07.958Z,20.89
2019-03-22T10:28:08.056Z,13.80
2019-03-22T10:29:07.960Z,15.00
2019-03-22T10:30:07.954Z,8.30
2019-03-22T10:31:07.914Z,8.30
2019-03-22T10:32:07.898Z,9.30
2019-03-22T10:33:07.970Z,11.00
2019-03-22T10:34:08.085Z,12.19
2019-03-22T10:35:07.931Z,13.30
2019-03-22T10:36:07.923Z,11.50
2019-03-22T10:37:07.845Z,8.30
2019-03-22T10:38:15.908Z,9.39
2019-03-22T10:39:32.723Z,8.30
2019-03-22T10:40:32.713Z,6.90
2019-03-22T10:41:32.665Z,11.30
2019-03-22T10:42:32.681Z,5.59
2019-03-22T10:43:32.650Z,6.50
2019-03-22T10:44:32.683Z,6.50
2019-03-22T10:45:32.694Z,8.00
2019-03-22T10:46:32.614Z,11.89
2019-03-22T10:47:32.635Z,12.00
2019-03-22T10:48:32.685Z,12.19
2019-03-22T10:49:32.584Z,21.00
2019-03-22T10:50:32.774Z,42.50
2019-03-22T10:51:32.565Z,23.89
2019-03-22T10:52:32.550Z,7.59
2019-03-22T10:53:32.602Z,8.69
2019-03-22T10:54:32.534Z,9.19
2019-03-22T10:55:35.378Z,7.09
2019-03-22T10:56:32.559Z,6.80
2019-03-22T10:57:32.495Z,10.50
2019-03-22T10:58:32.484Z,10.80
2019-03-22T10:59:32.475Z,11.60
2019-03-22T11:00:32.462Z,14.30
2019-03-22T11:01:32.455Z,31.70
2019-03-22T11:02:32.486Z,46.40
2019-03-22T11:03:32.484Z,39.90
2019-03-22T11:04:32.420Z,11.60
2019-03-22T11:05:32.408Z,11.39
2019-03-22T11:06:32.399Z,13.69
2019-03-22T11:07:32.390Z,22.20
2019-03-22T11:08:32.528Z,32.50
2019-03-22T11:09:32.365Z,20.10
2019-03-22T11:10:32.354Z,25.50
2019-03-22T11:11:32.344Z,17.60
2019-03-22T11:12:32.334Z,26.20
2019-03-22T11:13:32.322Z,34.70
2019-03-22T11:14:32.362Z,35.40
2019-03-22T11:15:32.295Z,25.50
2019-03-22T11:16:32.289Z,15.50
2019-03-22T11:17:32.279Z,25.29
2019-03-22T11:18:37.288Z,29.89
2019-03-22T11:19:32.255Z,35.29
2019-03-22T11:20:32.346Z,32.50
2019-03-22T11:21:32.232Z,20.39
2019-03-22T11:22:32.224Z,19.00
2019-03-22T11:23:32.215Z,9.69
2019-03-22T11:24:32.204Z,3.70
2019-03-22T11:25:32.193Z,10.89
2019-03-22T11:26:32.430Z,8.30
2019-03-22T11:27:32.170Z,20.29
2019-03-22T11:28:32.155Z,35.20
2019-03-22T11:29:32.150Z,34.79
2019-03-22T11:30:32.135Z,40.00
2019-03-22T11:31:39.511Z,39.70
2019-03-22T11:32:56.980Z,27.39
2019-03-22T11:33:56.968Z,35.29
2019-03-22T11:34:56.958Z,39.09
2019-03-22T11:35:56.949Z,41.70
2019-03-22T11:36:56.934Z,35.00
2019-03-22T11:37:56.980Z,31.60
2019-03-22T11:38:56.912Z,34.20
2019-03-22T11:39:56.905Z,38.59
2019-03-22T11:40:56.891Z,46.40
2019-03-22T11:41:56.883Z,42.79
2019-03-22T11:42:56.871Z,37.50
2019-03-22T11:43:57.071Z,49.20
2019-03-22T11:44:56.851Z,32.59
2019-03-22T11:45:56.837Z,25.20
2019-03-22T11:46:56.825Z,27.89
2019-03-22T11:47:56.820Z,34.20
2019-03-22T11:48:56.802Z,30.89
2019-03-22T11:49:56.899Z,29.20
2019-03-22T11:50:56.786Z,44.50
2019-03-22T11:51:56.777Z,54.29
2019-03-22T11:52:56.767Z,39.29
2019-03-22T11:53:56.756Z,38.59
2019-03-22T11:54:56.742Z,31.39
2019-03-22T11:55:56.776Z,31.70
2019-03-22T11:56:56.721Z,32.29
2019-03-22T11:57:56.714Z,31.50
2019-03-22T11:58:56.695Z,34.29
2019-03-22T11:59:56.690Z,36.70
2019-03-22T12:00:56.674Z,36.50
2019-03-22T12:01:56.819Z,43.59
2019-03-22T12:02:56.652Z,33.29
2019-03-22T12:03:56.645Z,34.50
2019-03-22T12:04:56.632Z,43.40
2019-03-22T12:05:56.624Z,45.29
2019-03-22T12:06:56.613Z,44.00
2019-03-22T12:07:56.653Z,40.50
2019-03-22T12:08:56.590Z,29.00
2019-03-22T12:09:56.578Z,29.79
2019-03-22T12:10:56.563Z,35.70
2019-03-22T12:11:56.556Z,35.70
2019-03-22T12:12:56.548Z,28.20
2019-03-22T12:13:56.586Z,37.59
2019-03-22T12:14:56.526Z,32.40
2019-03-22T12:15:56.514Z,34.79
2019-03-22T12:16:56.786Z,40.50
2019-03-22T12:17:56.491Z,52.59
2019-03-22T12:18:56.478Z,39.09
2019-03-22T12:19:56.621Z,45.50
2019-03-22T12:20:56.655Z,31.10
2019-03-22T12:21:56.446Z,28.89
2019-03-22T12:22:56.437Z,22.20
2019-03-22T12:23:56.425Z,15.19
2019-03-22T12:24:56.417Z,24.70
2019-03-22T12:25:56.449Z,16.70
2019-03-22T12:26:56.393Z,20.00
2019-03-22T12:27:56.381Z,22.00
2019-03-22T12:28:56.372Z,25.29
2019-03-22T12:29:56.358Z,19.89
2019-03-22T12:30:56.346Z,27.00
2019-03-22T12:31:56.439Z,31.20
2019-03-22T12:32:56.327Z,28.29
2019-03-22T12:33:56.319Z,22.29
2019-03-22T12:34:56.306Z,14.89
2019-03-22T12:35:56.299Z,16.50
2019-03-22T12:36:56.277Z,19.10
2019-03-22T12:37:57.781Z,30.39
2019-03-22T12:38:56.265Z,26.60
2019-03-22T12:39:56.253Z,27.20
2019-03-22T12:40:56.237Z,19.79
2019-03-22T12:41:56.230Z,27.89
2019-03-22T12:42:56.748Z,23.29
2019-03-22T12:43:56.256Z,29.70
2019-03-22T12:44:56.193Z,25.79
2019-03-22T12:45:56.185Z,30.10
2019-03-22T12:46:56.170Z,22.89
2019-03-22T12:47:56.158Z,20.70
2019-03-22T12:48:56.149Z,22.20
2019-03-22T12:49:56.243Z,32.40
2019-03-22T12:50:56.129Z,22.89
2019-03-22T12:51:56.112Z,23.89
2019-03-22T12:52:56.121Z,17.89
2019-03-22T12:53:56.093Z,20.29
2019-03-22T12:54:56.080Z,21.00
2019-03-22T12:55:56.225Z,23.70
2019-03-22T12:56:56.061Z,24.00
2019-03-22T12:57:56.053Z,20.20
2019-03-22T12:58:56.037Z,20.29
2019-03-22T12:59:56.027Z,15.19
2019-03-22T13:00:56.020Z,17.00
2019-03-22T13:01:56.110Z,14.69
2019-03-22T13:02:55.999Z,22.39
2019-03-22T13:03:55.988Z,21.10
2019-03-22T13:04:55.971Z,20.00
2019-03-22T13:05:55.962Z,28.20
2019-03-22T13:06:55.955Z,28.89
2019-03-22T13:07:55.994Z,32.79
2019-03-22T13:08:55.931Z,43.40
2019-03-22T13:09:55.915Z,49.00
2019-03-22T13:10:55.905Z,33.40
2019-03-22T13:11:55.896Z,35.29
2019-03-22T13:12:55.884Z,24.89
2019-03-22T13:13:56.074Z,24.89
2019-03-22T13:14:56.718Z,25.29
2019-03-22T13:15:55.864Z,17.50
2019-03-22T13:16:55.838Z,24.39
2019-03-22T13:17:55.832Z,26.39
2019-03-22T13:18:55.823Z,19.10
2019-03-22T13:19:55.860Z,23.00
2019-03-22T13:20:55.799Z,20.29
2019-03-22T13:21:55.790Z,28.20
2019-03-22T13:22:55.778Z,21.10
2019-03-22T13:23:55.763Z,22.00
2019-03-22T13:24:55.749Z,16.60
2019-03-22T13:25:55.849Z,24.29
2019-03-22T13:26:55.728Z,18.50
2019-03-22T13:27:55.719Z,25.70
2019-03-22T13:28:55.713Z,17.70
2019-03-22T13:29:55.697Z,17.39
2019-03-22T13:30:55.691Z,20.79
2019-03-22T13:31:55.832Z,21.20
2019-03-22T13:32:55.667Z,19.89
2019-03-22T13:33:55.657Z,22.20
2019-03-22T13:34:55.643Z,31.50
2019-03-22T13:35:55.635Z,23.79
2019-03-22T13:36:55.622Z,26.89
2019-03-22T13:37:55.665Z,20.20
2019-03-22T13:38:55.603Z,21.00
2019-03-22T13:39:55.595Z,24.50
2019-03-22T13:40:55.580Z,18.50
2019-03-22T13:41:55.570Z,16.39
2019-03-22T13:42:55.556Z,14.50
2019-03-22T13:43:55.651Z,16.89
2019-03-22T13:44:55.543Z,22.50
2019-03-22T13:45:55.523Z,22.10
2019-03-22T13:46:55.518Z,25.60
2019-03-22T13:47:55.503Z,30.39
2019-03-22T13:48:55.497Z,26.79
2019-03-22T13:49:55.630Z,24.00
2019-03-22T13:50:55.470Z,27.20
2019-03-22T13:51:55.464Z,27.39
2019-03-22T13:52:55.451Z,26.89
2019-03-22T13:53:55.445Z,26.79
2019-03-22T13:54:55.434Z,26.10
2019-03-22T13:55:55.466Z,19.20
2019-03-22T13:56:55.405Z,15.89
2019-03-22T14:37:19.840Z,25.70
2019-03-22T14:38:19.777Z,31.70